createdAt,value
2017-02-28T00:00:13.191Z,988.29
2017-02-28T00:01:23.027Z,988.2
2017-02-28T00:02:33.344Z,988.22
2017-02-28T00:03:44.504Z,988.27
2017-02-28T00:04:54.756Z,988.33
2017-02-28T00:06:05.583Z,988.31
2017-02-28T00:07:15.844Z,988.32
2017-02-28T00:08:25.074Z,988.26
2017-02-28T00:09:36.931Z,988.25
2017-02-28T00:10:47.854Z,988.23
2017-02-28T00:11:58.489Z,988.2
2017-02-28T00:13:09.633Z,988.25
2017-02-28T00:14:21.124Z,988.22
2017-02-28T00:15:32.169Z,988.25
2017-02-28T00:16:43.276Z,988.32
2017-02-28T00:17:52.268Z,988.3
2017-02-28T00:19:03.271Z,988.29
2017-02-28T00:20:13.566Z,988.33
2017-02-28T00:21:24.453Z,988.32
2017-02-28T00:22:36.091Z,988.36
2017-02-28T00:23:47.174Z,988.34
2017-02-28T00:24:58.059Z,988.44
2017-02-28T00:26:08.892Z,988.45
2017-02-28T00:27:21.014Z,988.44
2017-02-28T00:28:31.410Z,988.48
2017-02-28T00:29:42.481Z,988.51
2017-02-28T00:30:54.255Z,988.55
2017-02-28T00:32:05.329Z,988.55
2017-02-28T00:33:16.207Z,988.53
2017-02-28T00:34:27.648Z,988.53
2017-02-28T00:35:38.465Z,988.54
2017-02-28T00:36:49.803Z,988.52
2017-02-28T00:38:01.683Z,988.51
2017-02-28T00:39:11.898Z,988.48
2017-02-28T00:40:23.211Z,988.52
2017-02-28T00:41:34.894Z,988.58
2017-02-28T00:42:45.508Z,988.52
2017-02-28T00:43:57.464Z,988.59
2017-02-28T00:45:08.451Z,988.53
2017-02-28T00:46:19.215Z,988.56
2017-02-28T00:47:30.581Z,988.6
2017-02-28T00:48:42.262Z,988.61
2017-02-28T00:49:52.832Z,988.63
2017-02-28T00:51:04.303Z,988.6
2017-02-28T00:52:15.531Z,988.61
2017-02-28T00:53:24.505Z,988.62
2017-02-28T00:54:33.901Z,988.52
2017-02-28T00:55:43.227Z,988.54
2017-02-28T00:56:52.212Z,988.45
2017-02-28T00:58:01.194Z,988.38
2017-02-28T00:59:10.579Z,988.47
2017-02-28T01:00:19.568Z,988.44
2017-02-28T01:01:28.879Z,988.42
2017-02-28T01:02:37.858Z,988.4
2017-02-28T01:03:46.847Z,988.4
2017-02-28T01:04:55.915Z,988.28
2017-02-28T01:06:04.923Z,988.24
2017-02-28T01:07:14.213Z,988.28
2017-02-28T01:08:23.199Z,988.34
2017-02-28T01:09:32.196Z,988.4
2017-02-28T01:10:41.188Z,988.45
2017-02-28T01:11:50.266Z,988.47
2017-02-28T01:12:59.506Z,988.45
2017-02-28T01:14:08.507Z,988.46
2017-02-28T01:15:17.510Z,988.45
2017-02-28T01:16:26.601Z,988.42
2017-02-28T01:17:35.600Z,988.42
2017-02-28T01:18:44.893Z,988.45
2017-02-28T01:19:53.872Z,988.55
2017-02-28T01:21:02.873Z,988.4
2017-02-28T01:22:11.871Z,988.4
2017-02-28T01:23:20.871Z,988.33
2017-02-28T01:24:30.159Z,988.29
2017-02-28T01:25:39.143Z,988.25
2017-02-28T01:26:48.141Z,988.22
2017-02-28T01:27:57.127Z,988.2
2017-02-28T01:29:06.196Z,988.16
2017-02-28T01:30:15.485Z,988.17
2017-02-28T01:31:24.879Z,988.07
2017-02-28T01:32:33.943Z,988.04
2017-02-28T01:33:42.956Z,987.96
2017-02-28T01:34:51.935Z,987.94
2017-02-28T01:36:01.323Z,987.85
2017-02-28T01:37:10.303Z,987.68
2017-02-28T01:38:19.371Z,987.71
2017-02-28T01:39:28.346Z,987.68
2017-02-28T01:40:37.451Z,987.66
2017-02-28T01:41:46.687Z,987.73
2017-02-28T01:42:55.687Z,987.76
2017-02-28T01:44:04.663Z,987.76
2017-02-28T01:45:13.751Z,987.83
2017-02-28T01:46:22.826Z,987.78
2017-02-28T01:47:32.725Z,987.83
2017-02-28T01:48:41.721Z,987.73
2017-02-28T01:49:51.123Z,987.73
2017-02-28T01:51:00.133Z,987.72
2017-02-28T01:52:09.119Z,987.75
2017-02-28T01:53:18.516Z,987.79
2017-02-28T01:54:27.589Z,987.64
2017-02-28T01:55:36.688Z,987.58
2017-02-28T01:56:45.675Z,987.55
2017-02-28T01:57:54.664Z,987.47
2017-02-28T01:59:03.944Z,987.33
2017-02-28T02:00:12.931Z,987.28
2017-02-28T02:01:21.929Z,987.19
2017-02-28T02:02:30.930Z,987.22
2017-02-28T02:03:39.907Z,987.13
2017-02-28T02:04:49.150Z,987.17
2017-02-28T02:05:58.557Z,987.16
2017-02-28T02:07:07.562Z,987.15
2017-02-28T02:08:16.576Z,987.29
2017-02-28T02:09:25.974Z,987.43
2017-02-28T02:10:35.277Z,987.38
2017-02-28T02:11:44.267Z,987.36
2017-02-28T02:12:53.253Z,987.41
2017-02-28T02:14:02.264Z,987.42
2017-02-28T02:15:11.242Z,987.45
2017-02-28T02:16:21.031Z,987.44
2017-02-28T02:17:30.030Z,987.5
2017-02-28T02:18:39.030Z,987.52
2017-02-28T02:19:48.033Z,987.55
2017-02-28T02:20:57.016Z,987.62
2017-02-28T02:22:06.722Z,987.52
2017-02-28T02:23:15.802Z,987.46
2017-02-28T02:24:25.223Z,987.5
2017-02-28T02:25:34.215Z,987.46
2017-02-28T02:26:43.199Z,987.49
2017-02-28T02:27:52.523Z,987.42
2017-02-28T02:29:01.495Z,987.48
2017-02-28T02:30:10.598Z,987.46
2017-02-28T02:31:19.604Z,987.44
2017-02-28T02:32:28.588Z,987.39
2017-02-28T02:33:37.828Z,987.39
2017-02-28T02:34:46.835Z,987.36
2017-02-28T02:35:55.814Z,987.33
2017-02-28T02:37:04.880Z,987.36
2017-02-28T02:38:13.857Z,987.33
2017-02-28T02:39:23.141Z,987.37
2017-02-28T02:40:32.128Z,987.31
2017-02-28T02:41:41.120Z,987.23
2017-02-28T02:42:50.114Z,987.2
2017-02-28T02:43:59.193Z,987.13
2017-02-28T02:45:08.517Z,987.19
2017-02-28T02:46:17.524Z,987.11
2017-02-28T02:47:26.609Z,987.06
2017-02-28T02:48:35.598Z,987.01
2017-02-28T02:49:44.592Z,986.97
2017-02-28T02:50:53.826Z,986.94
2017-02-28T02:52:02.816Z,987.01
2017-02-28T02:53:11.804Z,986.93
2017-02-28T02:54:20.793Z,986.89
2017-02-28T02:55:29.800Z,986.86
2017-02-28T02:56:39.062Z,986.79
2017-02-28T02:57:48.047Z,986.9
2017-02-28T02:58:57.152Z,986.89
2017-02-28T03:00:06.548Z,986.88
2017-02-28T03:01:15.547Z,986.82
2017-02-28T03:02:24.845Z,986.9
2017-02-28T03:03:33.914Z,987.02
2017-02-28T03:04:42.919Z,987.16
2017-02-28T03:05:51.938Z,987.25
2017-02-28T03:07:01.004Z,987.26
2017-02-28T03:08:10.286Z,987.36
2017-02-28T03:09:19.266Z,987.37
2017-02-28T03:10:28.247Z,987.45
2017-02-28T03:11:37.252Z,987.37
2017-02-28T03:12:46.241Z,987.49
2017-02-28T03:13:55.546Z,987.51
2017-02-28T03:15:04.556Z,987.47
2017-02-28T03:16:13.551Z,987.32
2017-02-28T03:17:22.970Z,987.26
2017-02-28T03:18:31.969Z,987.3
2017-02-28T03:19:41.204Z,987.4
2017-02-28T03:20:50.585Z,987.47
2017-02-28T03:21:59.558Z,987.54
2017-02-28T03:23:08.544Z,987.54
2017-02-28T03:24:17.538Z,987.46
2017-02-28T03:25:27.182Z,987.57
2017-02-28T03:26:36.179Z,987.42
2017-02-28T03:27:45.161Z,987.31
2017-02-28T03:28:54.205Z,987.46
2017-02-28T03:30:03.585Z,987.46
2017-02-28T03:31:12.968Z,987.45
2017-02-28T03:32:21.961Z,987.44
2017-02-28T03:33:30.936Z,987.3
2017-02-28T03:34:39.920Z,987.32
2017-02-28T03:35:48.908Z,987.22
2017-02-28T03:36:58.188Z,987.2
2017-02-28T03:38:07.264Z,987.21
2017-02-28T03:39:16.282Z,987.12
2017-02-28T03:40:25.284Z,987.05
2017-02-28T03:41:34.704Z,987.02
2017-02-28T03:42:43.992Z,986.97
2017-02-28T03:43:52.985Z,987.07
2017-02-28T03:45:01.977Z,987.19
2017-02-28T03:46:11.383Z,987.27
2017-02-28T03:47:20.454Z,987.12
2017-02-28T03:48:29.719Z,987.13
2017-02-28T03:49:38.701Z,987.04
2017-02-28T03:50:47.789Z,987.13
2017-02-28T03:51:56.783Z,987.05
2017-02-28T03:53:05.777Z,987.03
2017-02-28T03:54:15.062Z,987.08
2017-02-28T03:55:24.051Z,987.06
2017-02-28T03:56:33.028Z,987.07
2017-02-28T03:57:42.019Z,987.09
2017-02-28T03:58:51.008Z,987.18
2017-02-28T04:00:00.402Z,987.19
2017-02-28T04:01:09.414Z,987.06
2017-02-28T04:02:18.412Z,987.12
2017-02-28T04:03:27.397Z,987.11
2017-02-28T04:04:36.389Z,987.08
2017-02-28T04:05:45.679Z,986.91
2017-02-28T04:06:54.667Z,986.76
2017-02-28T04:08:03.755Z,986.79
2017-02-28T04:09:12.738Z,986.89
2017-02-28T04:10:21.737Z,986.89
2017-02-28T04:11:31.028Z,987.12
2017-02-28T04:12:40.011Z,987.09
2017-02-28T04:13:48.994Z,987.15
2017-02-28T04:14:58.079Z,987.29
2017-02-28T04:16:07.064Z,987.28
2017-02-28T04:17:16.342Z,987.35
2017-02-28T04:18:25.419Z,987.33
2017-02-28T04:19:34.412Z,987.27
2017-02-28T04:20:43.411Z,987.27
2017-02-28T04:21:52.411Z,987.27
2017-02-28T04:23:01.785Z,987.28
2017-02-28T04:24:11.176Z,987.27
2017-02-28T04:25:20.180Z,987.22
2017-02-28T04:26:29.669Z,987.24
2017-02-28T04:27:38.651Z,987.17
2017-02-28T04:28:47.885Z,987.16
2017-02-28T04:29:56.880Z,987.14
2017-02-28T04:31:05.873Z,987.16
2017-02-28T04:32:14.863Z,987.11
2017-02-28T04:33:23.853Z,987.22
2017-02-28T04:34:32.840Z,987.16
2017-02-28T04:35:41.829Z,987.17
2017-02-28T04:36:50.825Z,987.2
2017-02-28T04:37:59.816Z,987.18
2017-02-28T04:39:09.117Z,987.2
2017-02-28T04:40:18.129Z,987.22
2017-02-28T04:41:27.116Z,987.23
2017-02-28T04:42:36.115Z,987.4
2017-02-28T04:43:45.115Z,987.38
2017-02-28T04:44:54.428Z,987.4
2017-02-28T04:46:03.429Z,987.45
2017-02-28T04:47:12.510Z,987.55
2017-02-28T04:48:21.510Z,987.52
2017-02-28T04:49:30.907Z,987.58
2017-02-28T04:50:40.297Z,987.62
2017-02-28T04:51:49.292Z,987.64
2017-02-28T04:52:58.288Z,987.74
2017-02-28T04:54:07.261Z,987.81
2017-02-28T04:55:16.255Z,987.72
2017-02-28T04:56:25.631Z,987.76
2017-02-28T04:57:34.627Z,987.63
2017-02-28T04:58:43.816Z,987.63
2017-02-28T04:59:52.820Z,987.63
2017-02-28T05:01:02.215Z,987.68
2017-02-28T05:02:11.508Z,987.73
2017-02-28T05:03:20.505Z,987.55
2017-02-28T05:04:29.504Z,987.43
2017-02-28T05:05:38.509Z,987.43
2017-02-28T05:06:47.571Z,987.48
2017-02-28T05:07:56.851Z,987.43
2017-02-28T05:09:05.861Z,987.37
2017-02-28T05:10:14.937Z,987.37
2017-02-28T05:11:23.944Z,987.56
2017-02-28T05:12:32.954Z,987.65
2017-02-28T05:13:42.177Z,987.65
2017-02-28T05:14:51.181Z,987.69
2017-02-28T05:16:00.158Z,987.69
2017-02-28T05:17:09.155Z,987.68
2017-02-28T05:18:18.276Z,987.56
2017-02-28T05:19:27.578Z,987.51
2017-02-28T05:20:36.571Z,987.51
2017-02-28T05:21:45.556Z,987.57
2017-02-28T05:22:54.556Z,987.47
2017-02-28T05:24:03.556Z,987.42
2017-02-28T05:25:12.800Z,987.39
2017-02-28T05:26:21.942Z,987.38
2017-02-28T05:27:32.467Z,987.33
2017-02-28T05:28:43.192Z,987.37
2017-02-28T05:29:54.419Z,987.47
2017-02-28T05:31:03.892Z,987.48
2017-02-28T05:32:14.136Z,987.54
2017-02-28T05:33:25.195Z,987.6
2017-02-28T05:34:35.927Z,987.4
2017-02-28T05:35:47.263Z,987.41
2017-02-28T05:36:58.257Z,987.34
2017-02-28T05:38:09.414Z,987.37
2017-02-28T05:39:20.952Z,987.44
2017-02-28T05:40:31.568Z,987.29
2017-02-28T05:41:43.061Z,987.39
2017-02-28T05:42:54.590Z,987.38
2017-02-28T05:44:05.146Z,987.44
2017-02-28T05:45:16.351Z,987.5
2017-02-28T05:46:27.566Z,987.5
2017-02-28T05:47:38.212Z,987.59
2017-02-28T05:48:50.267Z,987.72
2017-02-28T05:50:01.073Z,987.65
2017-02-28T05:51:11.706Z,987.73
2017-02-28T05:52:23.253Z,987.74
2017-02-28T05:53:34.883Z,987.63
2017-02-28T05:54:45.509Z,987.52
2017-02-28T05:55:57.064Z,987.65
2017-02-28T05:57:08.173Z,987.7
2017-02-28T05:58:18.921Z,987.66
2017-02-28T05:59:30.481Z,987.69
2017-02-28T06:00:42.163Z,987.71
2017-02-28T06:01:52.402Z,987.67
2017-02-28T06:03:04.283Z,987.66
2017-02-28T06:04:15.273Z,987.65
2017-02-28T06:05:25.954Z,987.74
2017-02-28T06:06:38.102Z,987.81
2017-02-28T06:07:48.799Z,987.9
2017-02-28T06:08:59.383Z,988.02
2017-02-28T06:10:11.132Z,988.03
2017-02-28T06:11:22.371Z,987.99
2017-02-28T06:12:33.364Z,987.86
2017-02-28T06:13:44.856Z,987.9
2017-02-28T06:14:56.257Z,987.93
2017-02-28T06:16:06.644Z,987.93
2017-02-28T06:17:18.057Z,987.93
2017-02-28T06:18:27.469Z,987.97
2017-02-28T06:19:38.205Z,988.04
2017-02-28T06:20:48.386Z,987.99
2017-02-28T06:21:59.729Z,988.02
2017-02-28T06:23:10.847Z,988.14
2017-02-28T06:24:22.527Z,988.17
2017-02-28T06:25:32.470Z,988.26
2017-02-28T06:26:44.622Z,988.11
2017-02-28T06:27:55.405Z,988.04
2017-02-28T06:29:05.978Z,987.97
2017-02-28T06:30:18.095Z,987.93
2017-02-28T06:31:28.907Z,987.91
2017-02-28T06:32:39.237Z,987.95
2017-02-28T06:33:51.569Z,987.99
2017-02-28T06:35:02.450Z,988.08
2017-02-28T06:36:13.437Z,988.21
2017-02-28T06:37:24.481Z,988.26
2017-02-28T06:38:35.321Z,988.25
2017-02-28T06:39:44.637Z,988.26
2017-02-28T06:40:55.065Z,988.18
2017-02-28T06:42:06.082Z,988.13
2017-02-28T06:43:17.364Z,988.01
2017-02-28T06:44:28.441Z,987.93
2017-02-28T06:45:39.027Z,988.05
2017-02-28T06:46:50.811Z,987.99
2017-02-28T06:48:02.202Z,988.05
2017-02-28T06:49:12.654Z,988.03
2017-02-28T06:50:24.468Z,988.04
2017-02-28T06:51:35.663Z,988.08
2017-02-28T06:52:44.659Z,988.17
2017-02-28T06:53:53.902Z,988.16
2017-02-28T06:55:02.979Z,988.1
2017-02-28T06:56:11.985Z,988.14
2017-02-28T06:57:20.970Z,988.13
2017-02-28T06:58:29.948Z,988.25
2017-02-28T06:59:39.636Z,988.3
2017-02-28T07:00:48.615Z,988.26
2017-02-28T07:01:57.600Z,988.31
2017-02-28T07:03:06.676Z,988.32
2017-02-28T07:04:16.097Z,988.4
2017-02-28T07:05:25.390Z,988.43
2017-02-28T07:06:34.393Z,988.41
2017-02-28T07:07:43.387Z,988.48
2017-02-28T07:08:52.365Z,988.59
2017-02-28T07:10:01.359Z,988.6
2017-02-28T07:11:10.607Z,988.53
2017-02-28T07:12:19.593Z,988.4
2017-02-28T07:13:28.599Z,988.4
2017-02-28T07:14:37.692Z,988.42
2017-02-28T07:15:46.672Z,988.28
2017-02-28T07:16:55.975Z,988.26
2017-02-28T07:18:04.960Z,988.34
2017-02-28T07:19:14.375Z,988.45
2017-02-28T07:20:23.384Z,988.55
2017-02-28T07:21:32.891Z,988.58
2017-02-28T07:22:42.185Z,988.52
2017-02-28T07:23:51.175Z,988.47
2017-02-28T07:25:00.239Z,988.46
2017-02-28T07:26:09.229Z,988.43
2017-02-28T07:27:18.205Z,988.29
2017-02-28T07:28:27.465Z,988.42
2017-02-28T07:29:36.457Z,988.41
2017-02-28T07:30:45.542Z,988.41
2017-02-28T07:31:54.562Z,988.41
2017-02-28T07:33:03.548Z,988.6
2017-02-28T07:34:12.829Z,988.58
2017-02-28T07:35:22.298Z,988.65
2017-02-28T07:36:31.385Z,988.59
2017-02-28T07:37:40.442Z,988.7
2017-02-28T07:38:53.028Z,988.53
2017-02-28T07:40:05.643Z,988.64
2017-02-28T07:41:14.645Z,988.64
2017-02-28T07:42:23.625Z,988.68
2017-02-28T07:43:32.626Z,988.83
2017-02-28T07:44:42.031Z,988.75
2017-02-28T07:45:51.313Z,988.73
2017-02-28T07:47:00.306Z,988.81
2017-02-28T07:48:09.293Z,988.64
2017-02-28T07:49:18.276Z,988.66
2017-02-28T07:50:27.269Z,988.63
2017-02-28T07:51:36.556Z,988.68
2017-02-28T07:52:45.546Z,988.78
2017-02-28T07:53:54.538Z,988.86
2017-02-28T07:55:03.530Z,988.93
2017-02-28T07:56:12.541Z,989.06
2017-02-28T07:57:21.819Z,988.9
2017-02-28T07:58:30.918Z,988.97
2017-02-28T07:59:39.917Z,988.95
2017-02-28T08:00:48.916Z,988.9
2017-02-28T08:01:57.987Z,988.94
2017-02-28T08:03:07.308Z,988.96
2017-02-28T08:04:16.300Z,988.91
2017-02-28T08:05:25.300Z,988.96
2017-02-28T08:06:34.289Z,988.95
2017-02-28T08:07:43.269Z,989
2017-02-28T08:08:52.515Z,988.9
2017-02-28T08:10:01.993Z,989
2017-02-28T08:11:10.986Z,988.98
2017-02-28T08:12:20.076Z,989
2017-02-28T08:13:29.464Z,989.01
2017-02-28T08:14:38.831Z,989.06
2017-02-28T08:15:47.807Z,988.98
2017-02-28T08:16:56.785Z,988.97
2017-02-28T08:18:05.858Z,989.07
2017-02-28T08:19:15.097Z,989.05
2017-02-28T08:20:26.184Z,989.15
2017-02-28T08:21:35.207Z,989.14
2017-02-28T08:22:44.182Z,989.21
2017-02-28T08:23:53.168Z,989.22
2017-02-28T08:25:02.159Z,989.13
2017-02-28T08:26:11.632Z,989.13
2017-02-28T08:27:20.729Z,989.12
2017-02-28T08:28:29.795Z,989.12
2017-02-28T08:29:38.773Z,989.13
2017-02-28T08:30:48.174Z,989.13
2017-02-28T08:31:58.444Z,989.22
2017-02-28T08:33:07.543Z,989.16
2017-02-28T08:34:16.588Z,989.12
2017-02-28T08:35:25.603Z,989.13
2017-02-28T08:36:34.586Z,989.15
2017-02-28T08:37:44.649Z,989.17
2017-02-28T08:38:53.742Z,989.14
2017-02-28T08:40:03.636Z,989.15
2017-02-28T08:41:18.599Z,989.19
2017-02-28T08:42:32.942Z,989.16
2017-02-28T08:43:48.069Z,989.2
2017-02-28T08:45:00.212Z,989.31
2017-02-28T08:46:09.216Z,989.37
2017-02-28T08:47:18.609Z,989.39
2017-02-28T08:48:28.167Z,989.26
2017-02-28T08:49:37.650Z,989.22
2017-02-28T08:50:46.752Z,989.14
2017-02-28T08:51:56.139Z,989.21
2017-02-28T08:53:05.132Z,989.19
2017-02-28T08:54:14.417Z,989.21
2017-02-28T08:55:23.397Z,989.3
2017-02-28T08:56:32.386Z,989.3
2017-02-28T08:57:41.789Z,989.25
2017-02-28T08:58:50.776Z,989.11
2017-02-28T09:00:00.074Z,989.05
2017-02-28T09:01:09.149Z,989.15
2017-02-28T09:02:18.173Z,989.17
2017-02-28T09:03:27.582Z,989.16
2017-02-28T09:04:36.575Z,989.24
2017-02-28T09:05:45.863Z,989.24
2017-02-28T09:06:54.869Z,989.27
2017-02-28T09:08:03.855Z,989.28
2017-02-28T09:09:12.859Z,989.38
2017-02-28T09:10:21.870Z,989.45
2017-02-28T09:11:31.188Z,989.44
2017-02-28T09:12:40.183Z,989.49
2017-02-28T09:13:49.168Z,989.61
2017-02-28T09:14:58.162Z,989.52
2017-02-28T09:16:07.551Z,989.47
2017-02-28T09:17:16.835Z,989.39
2017-02-28T09:18:25.822Z,989.32
2017-02-28T09:19:34.820Z,989.2
2017-02-28T09:20:43.814Z,989.2
2017-02-28T09:21:52.810Z,989.19
2017-02-28T09:23:02.256Z,989.26
2017-02-28T09:24:11.234Z,989.16
2017-02-28T09:25:20.254Z,989.21
2017-02-28T09:26:29.242Z,989.24
2017-02-28T09:27:38.225Z,989.33
2017-02-28T09:28:47.543Z,989.37
2017-02-28T09:29:56.712Z,989.4
2017-02-28T09:31:05.701Z,989.46
2017-02-28T09:32:14.778Z,989.4
2017-02-28T09:33:23.757Z,989.32
2017-02-28T09:34:33.059Z,989.34
2017-02-28T09:35:42.057Z,989.43
2017-02-28T09:36:51.054Z,989.46
2017-02-28T09:38:00.049Z,989.3
2017-02-28T09:39:09.445Z,989.35
2017-02-28T09:40:18.675Z,989.22
2017-02-28T09:41:27.736Z,989.23
2017-02-28T09:42:37.141Z,989.31
2017-02-28T09:43:46.220Z,989.42
2017-02-28T09:44:55.556Z,989.41
2017-02-28T09:46:05.581Z,989.4
2017-02-28T09:47:14.824Z,989.43
2017-02-28T09:48:23.811Z,989.34
2017-02-28T09:49:33.230Z,989.31
2017-02-28T09:50:42.392Z,989.36
2017-02-28T09:51:51.678Z,989.34
2017-02-28T09:53:00.680Z,989.51
2017-02-28T09:54:09.768Z,989.41
2017-02-28T09:55:18.760Z,989.4
2017-02-28T09:56:27.832Z,989.46
2017-02-28T09:57:37.133Z,989.39
2017-02-28T09:58:46.133Z,989.32
2017-02-28T09:59:55.131Z,989.28
2017-02-28T10:01:04.117Z,989.32
2017-02-28T10:02:13.200Z,989.38
2017-02-28T10:03:23.942Z,989.36
2017-02-28T10:04:33.660Z,989.32
2017-02-28T10:05:42.656Z,989.32
2017-02-28T10:06:52.098Z,989.3
2017-02-28T10:08:01.400Z,989.34
2017-02-28T10:09:11.019Z,989.28
2017-02-28T10:10:19.994Z,989.31
2017-02-28T10:11:28.990Z,989.32
2017-02-28T10:12:38.052Z,989.29
2017-02-28T10:13:47.129Z,989.45
2017-02-28T10:14:57.185Z,989.54
2017-02-28T10:16:06.263Z,989.39
2017-02-28T10:17:15.242Z,989.42
2017-02-28T10:18:24.229Z,989.36
2017-02-28T10:19:34.037Z,989.34
2017-02-28T10:20:43.368Z,989.34
2017-02-28T10:21:52.374Z,989.42
2017-02-28T10:23:01.385Z,989.33
2017-02-28T10:24:10.465Z,989.42
2017-02-28T10:25:19.442Z,989.3
2017-02-28T10:26:28.680Z,989.32
2017-02-28T10:27:37.682Z,989.41
2017-02-28T10:28:46.671Z,989.32
2017-02-28T10:29:55.663Z,989.49
2017-02-28T10:31:04.666Z,989.36
2017-02-28T10:32:14.357Z,989.42
2017-02-28T10:33:23.338Z,989.46
2017-02-28T10:34:32.327Z,989.56
2017-02-28T10:35:41.322Z,989.44
2017-02-28T10:36:50.715Z,989.44
2017-02-28T10:38:00.007Z,989.56
2017-02-28T10:39:09.117Z,989.46
2017-02-28T10:40:18.122Z,989.41
2017-02-28T10:41:27.115Z,989.49
2017-02-28T10:42:36.116Z,989.42
2017-02-28T10:43:45.410Z,989.62
2017-02-28T10:44:54.504Z,989.45
2017-02-28T10:46:03.575Z,989.43
2017-02-28T10:47:12.685Z,989.52
2017-02-28T10:48:21.686Z,989.34
2017-02-28T10:49:30.965Z,989.35
2017-02-28T10:50:39.941Z,989.39
2017-02-28T10:51:48.930Z,989.41
2017-02-28T10:52:58.434Z,989.56
2017-02-28T10:54:07.425Z,989.53
2017-02-28T10:55:16.734Z,989.43
2017-02-28T10:56:25.847Z,989.48
2017-02-28T10:57:34.877Z,989.41
2017-02-28T10:58:43.944Z,989.52
2017-02-28T10:59:52.946Z,989.45
2017-02-28T11:01:02.691Z,989.39
2017-02-28T11:02:11.673Z,989.39
2017-02-28T11:03:20.654Z,989.28
2017-02-28T11:04:29.643Z,989.35
2017-02-28T11:05:39.040Z,989.4
2017-02-28T11:06:48.733Z,989.37
2017-02-28T11:07:57.712Z,989.34
2017-02-28T11:09:06.794Z,989.29
2017-02-28T11:10:15.801Z,989.37
2017-02-28T11:11:24.796Z,989.23
2017-02-28T11:12:34.092Z,989.21
2017-02-28T11:13:43.092Z,989.2
2017-02-28T11:14:52.606Z,989.24
2017-02-28T11:16:02.016Z,989.21
2017-02-28T11:17:10.999Z,989.29
2017-02-28T11:18:20.244Z,989.29
2017-02-28T11:19:29.275Z,989.27
2017-02-28T11:20:38.250Z,989.2
2017-02-28T11:21:47.253Z,989.26
2017-02-28T11:22:56.234Z,989.17
2017-02-28T11:24:05.577Z,989.16
2017-02-28T11:25:14.673Z,989.18
2017-02-28T11:26:23.665Z,989.1
2017-02-28T11:27:32.660Z,989.06
2017-02-28T11:28:41.654Z,989.07
2017-02-28T11:29:50.944Z,989.01
2017-02-28T11:30:59.947Z,989.07
2017-02-28T11:32:08.958Z,988.99
2017-02-28T11:33:17.939Z,989.04
2017-02-28T11:34:26.934Z,988.99
2017-02-28T11:35:36.228Z,989.03
2017-02-28T11:36:45.216Z,988.95
2017-02-28T11:37:54.279Z,989.01
2017-02-28T11:39:03.282Z,988.92
2017-02-28T11:40:12.304Z,988.94
2017-02-28T11:41:21.602Z,988.93
2017-02-28T11:42:30.590Z,989.03
2017-02-28T11:43:39.610Z,988.96
2017-02-28T11:44:49.010Z,988.88
2017-02-28T11:45:58.002Z,989.03
2017-02-28T11:47:07.686Z,988.94
2017-02-28T11:48:16.757Z,989.05
2017-02-28T11:49:25.745Z,988.98
2017-02-28T11:50:34.745Z,989.05
2017-02-28T11:51:44.146Z,988.91
2017-02-28T11:52:53.369Z,988.9
2017-02-28T11:54:02.756Z,988.9
2017-02-28T11:55:11.734Z,988.98
2017-02-28T11:56:20.761Z,988.88
2017-02-28T11:57:29.749Z,988.77
2017-02-28T11:58:39.030Z,988.76
2017-02-28T11:59:48.443Z,988.78
2017-02-28T12:00:57.425Z,988.77
2017-02-28T12:02:06.832Z,988.72
2017-02-28T12:03:15.821Z,988.73
2017-02-28T12:04:25.115Z,988.85
2017-02-28T12:05:34.182Z,988.74
2017-02-28T12:06:43.565Z,988.67
2017-02-28T12:07:52.570Z,988.54
2017-02-28T12:09:01.662Z,988.64
2017-02-28T12:10:11.040Z,988.62
2017-02-28T12:11:20.028Z,988.59
2017-02-28T12:12:29.441Z,988.53
2017-02-28T12:13:38.418Z,988.54
2017-02-28T12:14:47.599Z,988.5
2017-02-28T12:15:56.880Z,988.55
2017-02-28T12:17:05.861Z,988.63
2017-02-28T12:18:14.847Z,988.57
2017-02-28T12:19:23.837Z,988.5
2017-02-28T12:20:32.825Z,988.53
2017-02-28T12:21:42.230Z,988.48
2017-02-28T12:22:51.208Z,988.46
2017-02-28T12:24:00.286Z,988.5
2017-02-28T12:25:09.276Z,988.48
2017-02-28T12:26:18.275Z,988.42
2017-02-28T12:27:27.556Z,988.49
2017-02-28T12:28:36.548Z,988.63
2017-02-28T12:29:45.567Z,988.62
2017-02-28T12:30:54.545Z,988.49
2017-02-28T12:32:03.628Z,988.47
2017-02-28T12:33:13.010Z,988.53
2017-02-28T12:34:22.003Z,988.58
2017-02-28T12:35:31.412Z,988.53
2017-02-28T12:36:40.401Z,988.59
2017-02-28T12:37:49.392Z,988.62
2017-02-28T12:38:58.681Z,988.75
2017-02-28T12:40:07.690Z,988.64
2017-02-28T12:41:17.118Z,988.57
2017-02-28T12:42:26.111Z,988.72
2017-02-28T12:43:35.190Z,988.77
2017-02-28T12:44:44.498Z,988.77
2017-02-28T12:45:53.905Z,988.77
2017-02-28T12:47:02.895Z,988.79
2017-02-28T12:48:11.906Z,988.83
2017-02-28T12:49:20.891Z,988.71
2017-02-28T12:50:30.273Z,988.73
2017-02-28T12:51:39.672Z,988.68
2017-02-28T12:52:48.673Z,988.71
2017-02-28T12:53:57.766Z,988.67
2017-02-28T12:55:06.743Z,988.68
2017-02-28T12:56:16.032Z,988.65
2017-02-28T12:57:25.031Z,988.63
2017-02-28T12:58:34.035Z,988.71
2017-02-28T12:59:43.016Z,988.77
2017-02-28T13:00:52.003Z,988.74
2017-02-28T13:02:01.280Z,988.72
2017-02-28T13:03:10.276Z,988.67
2017-02-28T13:04:19.259Z,988.72
2017-02-28T13:05:28.250Z,988.77
2017-02-28T13:06:37.227Z,988.72
2017-02-28T13:07:46.515Z,988.72
2017-02-28T13:08:55.590Z,988.74
2017-02-28T13:10:04.574Z,988.68
2017-02-28T13:11:13.639Z,988.62
2017-02-28T13:12:22.620Z,988.59
2017-02-28T13:13:31.918Z,988.59
2017-02-28T13:14:40.911Z,988.57
2017-02-28T13:15:49.992Z,988.61
2017-02-28T13:16:58.966Z,988.5
2017-02-28T13:18:07.964Z,988.51
2017-02-28T13:19:17.209Z,988.42
2017-02-28T13:20:26.200Z,988.45
2017-02-28T13:21:35.270Z,988.48
2017-02-28T13:22:44.269Z,988.4
2017-02-28T13:23:53.262Z,988.36
2017-02-28T13:25:02.544Z,988.45
2017-02-28T13:26:11.539Z,988.36
2017-02-28T13:27:20.541Z,988.41
2017-02-28T13:28:29.549Z,988.42
2017-02-28T13:29:38.548Z,988.39
2017-02-28T13:30:47.779Z,988.34
2017-02-28T13:31:56.855Z,988.32
2017-02-28T13:33:05.834Z,988.23
2017-02-28T13:34:14.846Z,988.29
2017-02-28T13:35:23.826Z,988.34
2017-02-28T13:36:33.127Z,988.27
2017-02-28T13:37:42.138Z,988.3
2017-02-28T13:38:51.137Z,988.33
2017-02-28T13:40:00.122Z,988.35
2017-02-28T13:41:09.119Z,988.4
2017-02-28T13:42:18.400Z,988.39
2017-02-28T13:43:27.395Z,988.42
2017-02-28T13:44:36.475Z,988.44
2017-02-28T13:45:45.452Z,988.36
2017-02-28T13:46:54.450Z,988.38
2017-02-28T13:48:04.148Z,988.41
2017-02-28T13:49:13.153Z,988.34
2017-02-28T13:50:22.159Z,988.43
2017-02-28T13:51:31.250Z,988.47
2017-02-28T13:52:40.264Z,988.45
2017-02-28T13:53:49.649Z,988.44
2017-02-28T13:54:58.645Z,988.47
2017-02-28T13:56:07.634Z,988.42
2017-02-28T13:57:16.632Z,988.45
2017-02-28T13:58:25.711Z,988.54
2017-02-28T13:59:34.995Z,988.52
2017-02-28T14:00:43.977Z,988.55
2017-02-28T14:01:52.997Z,988.61
2017-02-28T14:03:02.098Z,988.5
2017-02-28T14:04:11.495Z,988.48
2017-02-28T14:05:20.777Z,988.48
2017-02-28T14:06:29.761Z,988.53
2017-02-28T14:07:38.838Z,988.6
2017-02-28T14:08:47.828Z,988.6
2017-02-28T14:09:56.819Z,988.65
2017-02-28T14:11:06.070Z,988.64
2017-02-28T14:12:15.053Z,988.68
2017-02-28T14:13:24.037Z,988.63
2017-02-28T14:14:33.055Z,988.62
2017-02-28T14:15:42.049Z,988.66
2017-02-28T14:16:51.279Z,988.63
2017-02-28T14:18:00.289Z,988.61
2017-02-28T14:19:09.283Z,988.64
2017-02-28T14:20:18.680Z,988.55
2017-02-28T14:21:27.767Z,988.59
2017-02-28T14:22:37.046Z,988.58
2017-02-28T14:23:46.034Z,988.53
2017-02-28T14:24:55.015Z,988.46
2017-02-28T14:26:04.422Z,988.43
2017-02-28T14:27:13.505Z,988.38
2017-02-28T14:28:22.754Z,988.35
2017-02-28T14:29:31.817Z,988.3